createdAt,value
2023-04-11T00:00:25.608Z,10.65
2023-04-11T00:05:31.466Z,9.43
2023-04-11T00:10:34.735Z,12.23
2023-04-11T00:15:39.396Z,9.98
2023-04-11T00:20:44.056Z,11.32
2023-04-11T00:25:48.347Z,11.82
2023-04-11T00:30:51.613Z,11.27
2023-04-11T00:35:56.992Z,10.30
2023-04-11T00:41:00.384Z,10.00
2023-04-11T00:46:04.141Z,13.23
2023-04-11T00:51:09.356Z,10.43
2023-04-11T01:01:16.791Z,9.95
2023-04-11T01:06:23.463Z,9.02
2023-04-11T01:11:27.344Z,11.07
2023-04-11T01:16:30.743Z,10.23
2023-04-11T01:21:36.313Z,8.90
2023-04-11T01:26:41.051Z,10.63
2023-04-11T01:31:45.209Z,12.25
2023-04-11T01:36:48.722Z,12.75
2023-04-11T01:41:54.253Z,12.27
2023-04-11T01:46:57.883Z,10.60
2023-04-11T01:52:01.172Z,10.80
2023-04-11T01:57:06.206Z,11.77
2023-04-11T02:02:09.710Z,9.38
2023-04-11T02:07:13.181Z,12.93
2023-04-11T02:12:17.952Z,11.13
2023-04-11T02:17:25.927Z,10.80
2023-04-11T02:22:29.352Z,9.07
2023-04-11T02:27:34.536Z,12.88
2023-04-11T02:32:38.425Z,9.55
2023-04-11T02:37:41.684Z,10.65
2023-04-11T02:42:46.312Z,11.90
2023-04-11T02:47:50.055Z,10.20
2023-04-11T02:52:54.235Z,11.52
2023-04-11T02:58:03.023Z,12.20
2023-04-11T03:03:07.327Z,10.15
2023-04-11T03:08:17.979Z,10.10
2023-04-11T03:13:28.504Z,11.23
2023-04-11T03:18:31.991Z,10.40
2023-04-11T03:23:39.854Z,10.55
2023-04-11T03:28:44.619Z,11.77
2023-04-11T03:33:51.283Z,10.18
2023-04-11T03:38:54.996Z,12.77
2023-04-11T03:44:00.135Z,9.05
2023-04-11T03:49:03.578Z,10.75
2023-04-11T03:54:07.609Z,11.57
2023-04-11T03:59:16.735Z,10.63
2023-04-11T04:04:40.918Z,10.32
2023-04-11T04:09:56.914Z,10.18
2023-04-11T04:15:02.545Z,9.13
2023-04-11T04:20:10.781Z,9.50
2023-04-11T04:25:17.343Z,9.02
2023-04-11T04:30:24.056Z,8.38
2023-04-11T04:35:39.888Z,13.95
2023-04-11T04:40:44.251Z,12.90
2023-04-11T04:45:49.234Z,11.00
2023-04-11T04:50:57.620Z,11.75
2023-04-11T04:56:01.882Z,10.68
2023-04-11T05:01:11.396Z,10.35
2023-04-11T05:06:15.068Z,10.98
2023-04-11T05:11:22.112Z,12.90
2023-04-11T05:16:27.131Z,13.75
2023-04-11T05:21:31.388Z,12.30
2023-04-11T05:26:35.234Z,15.38
2023-04-11T05:31:40.503Z,13.13
2023-04-11T05:36:46.410Z,13.95
2023-04-11T05:41:50.208Z,13.52
2023-04-11T05:46:54.772Z,13.63
2023-04-11T05:51:58.071Z,14.27
2023-04-11T05:57:05.107Z,12.82
2023-04-11T06:02:10.029Z,15.75
2023-04-11T06:07:15.563Z,14.75
2023-04-11T06:12:23.778Z,16.77
2023-04-11T06:17:41.461Z,14.48
2023-04-11T06:22:47.282Z,15.07
2023-04-11T06:27:51.764Z,13.57
2023-04-11T06:32:58.028Z,13.40
2023-04-11T06:38:01.769Z,13.38
2023-04-11T06:43:06.308Z,14.35
2023-04-11T06:48:12.507Z,18.77
2023-04-11T06:53:16.614Z,16.50
2023-04-11T06:58:21.722Z,18.33
2023-04-11T07:03:27.457Z,20.15
2023-04-11T07:08:32.058Z,15.40
2023-04-11T07:13:36.210Z,18.92
2023-04-11T07:18:41.220Z,19.60
2023-04-11T07:23:45.586Z,15.90
2023-04-11T07:28:50.164Z,16.63
2023-04-11T07:33:59.206Z,13.00
2023-04-11T07:39:09.000Z,17.20
2023-04-11T07:44:13.302Z,15.10
2023-04-11T07:49:19.660Z,13.85
2023-04-11T07:54:25.426Z,12.05
2023-04-11T07:59:29.198Z,9.38
2023-04-11T08:04:35.414Z,11.10
2023-04-11T08:09:39.567Z,8.27
2023-04-11T08:14:43.047Z,10.45
2023-04-11T08:19:47.953Z,8.02
2023-04-11T08:24:51.978Z,8.15
2023-04-11T08:29:57.105Z,6.00
2023-04-11T08:35:01.912Z,10.15
2023-04-11T08:40:07.409Z,5.15
2023-04-11T08:45:12.700Z,9.30
2023-04-11T08:50:19.510Z,4.75
2023-04-11T08:55:23.570Z,6.32
2023-04-11T09:00:29.190Z,5.03
2023-04-11T09:05:35.859Z,5.00
2023-04-11T09:10:42.889Z,8.30
2023-04-11T09:15:46.960Z,5.75
2023-04-11T09:20:59.978Z,4.88
2023-04-11T09:26:06.732Z,4.13
2023-04-11T09:31:13.255Z,4.40
2023-04-11T09:36:21.382Z,6.28
2023-04-11T09:41:32.666Z,5.75
2023-04-11T09:46:37.392Z,6.82
2023-04-11T09:56:46.667Z,10.25
2023-04-11T10:01:51.614Z,6.68
2023-04-11T10:07:09.057Z,4.25
2023-04-11T10:12:12.949Z,3.13
2023-04-11T10:17:21.837Z,7.07
2023-04-11T10:23:01.585Z,4.65
2023-04-11T10:28:05.619Z,3.45
2023-04-11T10:33:10.223Z,3.88
2023-04-11T10:38:49.635Z,8.40
2023-04-11T10:44:18.505Z,3.67
2023-04-11T10:49:34.719Z,3.20
2023-04-11T10:54:39.894Z,3.35
2023-04-11T11:05:18.555Z,2.88
2023-04-11T11:10:41.137Z,1.73
2023-04-11T11:15:50.982Z,2.72
2023-04-11T11:20:56.231Z,1.27
2023-04-11T11:26:02.172Z,2.35
2023-04-11T11:31:06.322Z,2.67
2023-04-11T11:36:12.155Z,1.67
2023-04-11T11:41:17.822Z,4.78
2023-04-11T11:46:21.667Z,3.78
2023-04-11T11:51:26.623Z,4.70
2023-04-11T11:56:32.210Z,3.72
2023-04-11T12:01:37.550Z,8.70
2023-04-11T12:06:45.899Z,3.83
2023-04-11T12:11:55.270Z,6.55
2023-04-11T12:16:59.226Z,2.13
2023-04-11T12:22:03.234Z,5.18
2023-04-11T12:27:09.039Z,6.88
2023-04-11T12:32:15.342Z,4.13
2023-04-11T12:37:19.192Z,6.25
2023-04-11T12:42:27.161Z,2.08
2023-04-11T12:47:31.358Z,4.57
2023-04-11T12:52:35.914Z,3.58
2023-04-11T12:57:42.393Z,1.60
2023-04-11T13:02:46.848Z,3.15
2023-04-11T13:07:51.013Z,2.73
2023-04-11T13:12:58.644Z,3.45
2023-04-11T13:18:04.952Z,4.05
2023-04-11T13:23:10.491Z,4.78
2023-04-11T13:28:17.097Z,10.38
2023-04-11T13:33:21.053Z,10.40
2023-04-11T13:38:25.698Z,4.72
2023-04-11T13:43:31.376Z,2.67
2023-04-11T13:48:36.580Z,2.03
2023-04-11T13:53:41.215Z,1.97
2023-04-11T13:58:46.694Z,2.03
2023-04-11T14:03:51.593Z,1.83
2023-04-11T14:08:55.907Z,1.52
2023-04-11T14:14:03.939Z,1.45
2023-04-11T14:19:08.861Z,4.85
2023-04-11T14:24:12.827Z,2.53
2023-04-11T14:29:19.404Z,2.08
2023-04-11T14:34:24.734Z,3.33
2023-04-11T14:39:29.145Z,2.65
2023-04-11T14:44:35.627Z,1.38
2023-04-11T14:49:39.354Z,3.90
2023-04-11T14:54:43.182Z,4.28
2023-04-11T14:59:48.585Z,1.60
2023-04-11T15:04:53.689Z,4.68
2023-04-11T15:09:58.161Z,3.25
2023-04-11T15:15:04.703Z,1.90
2023-04-11T15:20:11.777Z,2.83
2023-04-11T15:25:16.928Z,4.72
2023-04-11T15:30:22.513Z,1.83
2023-04-11T15:35:26.914Z,6.32
2023-04-11T15:40:30.504Z,2.95
2023-04-11T15:45:37.391Z,5.82
2023-04-11T15:50:42.720Z,2.30
2023-04-11T15:55:47.925Z,1.95
2023-04-11T16:00:54.854Z,1.15
2023-04-11T16:05:58.733Z,1.67
2023-04-11T16:11:02.183Z,4.25
2023-04-11T16:16:09.570Z,1.98
2023-04-11T16:21:15.190Z,3.75
2023-04-11T16:26:18.687Z,3.25
2023-04-11T16:31:24.994Z,4.47
2023-04-11T16:36:29.853Z,3.38
2023-04-11T16:41:36.473Z,2.80
2023-04-11T16:46:41.958Z,6.22
2023-04-11T16:51:45.716Z,3.65
2023-04-11T16:56:49.638Z,6.13
2023-04-11T17:01:54.711Z,6.32
2023-04-11T17:12:03.330Z,6.65
2023-04-11T17:17:08.579Z,8.38
2023-04-11T17:22:13.309Z,2.53
2023-04-11T17:27:17.650Z,3.70
2023-04-11T17:32:22.757Z,3.65
2023-04-11T17:37:26.997Z,1.40
2023-04-11T17:42:30.587Z,13.00
2023-04-11T17:47:35.947Z,3.20
2023-04-11T17:52:42.648Z,2.72
2023-04-11T17:57:50.070Z,2.55
2023-04-11T18:03:00.966Z,2.38
2023-04-11T18:08:05.340Z,3.25
2023-04-11T18:13:09.299Z,6.57
2023-04-11T18:18:14.276Z,4.78
2023-04-11T18:23:18.062Z,1.90
2023-04-11T18:28:23.176Z,2.53
2023-04-11T18:33:28.157Z,7.85
2023-04-11T18:38:31.781Z,3.63
2023-04-11T18:43:35.454Z,6.10
2023-04-11T18:48:40.856Z,6.20
2023-04-11T18:53:45.019Z,5.03
2023-04-11T18:58:51.514Z,7.85
2023-04-11T19:04:00.044Z,3.35
2023-04-11T19:09:06.585Z,10.27
2023-04-11T19:14:10.677Z,16.77
2023-04-11T19:19:16.463Z,3.97
2023-04-11T19:24:20.577Z,3.47
2023-04-11T19:29:24.619Z,5.88
2023-04-11T19:34:30.436Z,4.68
2023-04-11T19:39:38.371Z,4.38
2023-04-11T19:44:42.369Z,5.93
2023-04-11T19:49:47.401Z,4.78
2023-04-11T19:59:55.477Z,6.45
2023-04-11T20:05:01.748Z,4.90
2023-04-11T20:10:08.064Z,6.53
2023-04-11T20:15:13.710Z,13.70
2023-04-11T20:20:20.563Z,5.50
2023-04-11T20:25:24.791Z,7.63
2023-04-11T20:30:29.845Z,5.57
2023-04-11T20:40:38.744Z,11.50
2023-04-11T20:45:43.017Z,7.57
2023-04-11T20:50:48.471Z,9.03
2023-04-11T20:55:52.338Z,14.23
2023-04-11T21:00:57.201Z,8.38
2023-04-11T21:06:04.447Z,7.20
2023-04-11T21:11:09.403Z,12.88
2023-04-11T21:16:13.421Z,8.57
2023-04-11T21:21:19.123Z,8.97
2023-04-11T21:31:27.846Z,8.63
2023-04-11T21:36:33.332Z,8.13
2023-04-11T21:41:37.143Z,6.88
2023-04-11T21:46:41.357Z,8.73
2023-04-11T21:51:46.376Z,7.55
2023-04-11T21:56:50.687Z,7.05
2023-04-11T22:01:54.458Z,7.85
2023-04-11T22:12:04.845Z,5.57
2023-04-11T22:17:08.964Z,4.57
2023-04-11T22:22:14.202Z,6.80
2023-04-11T22:27:19.298Z,5.65
2023-04-11T22:32:23.835Z,4.90
2023-04-11T22:37:29.078Z,9.35
2023-04-11T22:42:32.754Z,6.47
2023-04-11T22:47:38.064Z,5.35
2023-04-11T22:52:43.723Z,5.13
2023-04-11T22:57:49.347Z,5.28
2023-04-11T23:02:54.541Z,4.40
2023-04-11T23:08:01.332Z,13.10
2023-04-11T23:13:05.455Z,3.85
2023-04-11T23:18:09.681Z,7.07
2023-04-11T23:23:15.795Z,3.88
2023-04-11T23:28:21.072Z,14.07
2023-04-11T23:33:27.048Z,4.33
2023-04-11T23:38:32.782Z,6.05
2023-04-11T23:43:36.797Z,4.38
2023-04-11T23:48:40.813Z,5.68
2023-04-11T23:53:46.105Z,4.25
